»·PEaware :: N209K KVIS-KLVK

N209K :: KVIS-KLVK

FLIGHT INFORMATION

Flight Status: Arrived
Operator: Privately registered:
United States
More flights under this callsign
Pilot: Jamie L. (18851)
Aircraft: BEECH AIRCRAFT BARON
(BE58)
More flights by this aircraft type
Origin: KVIS Visalia Mun
United States
Destination: KLVK Livermore Mun
United States
More flights between these airports :: More routes between these airports
Route: +CZQ HYP
File this flight plan on PilotEdge
Remarks:
Altitude:
(Current/Filed)
9,000ft
Speed:
(Current/Filed)
180kts
Departed: 29-Apr-18 01:44 PM
Arrived: 29-Apr-18 02:41 PM
Distance/Time
Traveled:
143nm/0:57
Distance/Time
To Go:
Arrived

Flight Plot

Page will automatically refresh every two minutes.


Map Options




Map Legend


Flown Route
Filed Route
Departure Airport
Arrival Airport
Navaid (VOR, NDB)
Fix

Horizontal Profiles

Position Reports

Time Latitude Longitude Heading Altitude Ground
Speed
29-Apr-18 13:32 36.323620 -119.395054 221 297ft 0kts
29-Apr-18 13:33 36.323620 -119.395054 221 297ft 0kts
29-Apr-18 13:34 36.323620 -119.395054 221 297ft 0kts
29-Apr-18 13:35 36.323619 -119.395054 221 297ft 0kts
29-Apr-18 13:36 36.323618 -119.395055 221 297ft 0kts
29-Apr-18 13:37 36.323618 -119.395056 221 297ft 0kts
29-Apr-18 13:38 36.323617 -119.395057 221 297ft 0kts
29-Apr-18 13:39 36.323616 -119.395058 221 297ft 0kts
29-Apr-18 13:40 36.323615 -119.395058 221 297ft 0kts
29-Apr-18 13:41 36.323496 -119.395812 312 297ft 12kts
29-Apr-18 13:42 36.323282 -119.396811 182 297ft 7kts
29-Apr-18 13:43 36.314514 -119.387567 134 454ft 117kts
29-Apr-18 13:44 36.289217 -119.354441 134 1654ft 137kts
29-Apr-18 13:45 36.306752 -119.330598 337 2986ft 149kts
29-Apr-18 13:46 36.341173 -119.361718 313 4214ft 153kts
29-Apr-18 13:47 36.360119 -119.404085 283 5623ft 140kts
29-Apr-18 13:48 36.382367 -119.440065 320 6888ft 133kts
29-Apr-18 13:49 36.413472 -119.463274 321 8082ft 127kts
29-Apr-18 13:50 36.442598 -119.484943 320 8985ft 127kts
29-Apr-18 13:51 36.478935 -119.511945 322 8982ft 168kts
29-Apr-18 13:52 36.520153 -119.542535 323 8990ft 175kts
29-Apr-18 13:53 36.562016 -119.573707 322 9002ft 174kts
29-Apr-18 13:54 36.603289 -119.604496 322 9006ft 172kts
29-Apr-18 13:55 36.644366 -119.635185 322 9009ft 172kts
29-Apr-18 13:56 36.686029 -119.666307 323 9006ft 176kts
29-Apr-18 13:57 36.727848 -119.697683 323 9010ft 176kts
29-Apr-18 13:58 36.770157 -119.729429 323 9011ft 177kts
29-Apr-18 13:59 36.812397 -119.761145 322 9001ft 177kts
29-Apr-18 14:00 36.854770 -119.792939 322 8998ft 177kts
29-Apr-18 14:01 36.893426 -119.829749 300 9021ft 172kts
29-Apr-18 14:02 36.921201 -119.878922 300 9021ft 174kts
29-Apr-18 14:03 36.949323 -119.927922 301 9021ft 173kts
29-Apr-18 14:04 36.977520 -119.976969 301 9025ft 173kts
29-Apr-18 14:05 37.005639 -120.025911 301 9027ft 173kts
29-Apr-18 14:06 37.033764 -120.074935 300 9028ft 173kts
29-Apr-18 14:07 37.062029 -120.124279 301 9027ft 174kts
29-Apr-18 14:08 37.090661 -120.174335 301 9000ft 177kts
29-Apr-18 14:09 37.119422 -120.224669 300 9002ft 176kts
29-Apr-18 14:10 37.147850 -120.274518 300 9005ft 175kts
29-Apr-18 14:11 37.176195 -120.324300 300 9007ft 175kts
29-Apr-18 14:12 37.204668 -120.374379 300 9009ft 176kts
29-Apr-18 14:13 37.228769 -120.427052 288 9011ft 173kts
29-Apr-18 14:14 37.247579 -120.482718 289 9010ft 173kts
29-Apr-18 14:15 37.266527 -120.538457 289 9010ft 173kts
29-Apr-18 14:16 37.285405 -120.594012 289 9009ft 173kts
29-Apr-18 14:17 37.304382 -120.649930 288 8986ft 173kts
29-Apr-18 14:18 37.323457 -120.706254 289 8981ft 175kts
29-Apr-18 14:19 37.342967 -120.763967 289 8976ft 179kts
29-Apr-18 14:20 37.362645 -120.822262 288 8979ft 178kts
29-Apr-18 14:21 37.381511 -120.878293 288 8981ft 172kts
29-Apr-18 14:22 37.400038 -120.933446 288 8980ft 171kts
29-Apr-18 14:23 37.418534 -120.988590 288 8979ft 170kts
29-Apr-18 14:24 37.436823 -121.043219 288 8978ft 169kts
29-Apr-18 14:25 37.455581 -121.099296 288 8410ft 172kts
29-Apr-18 14:26 37.474335 -121.155508 288 7397ft 173kts
29-Apr-18 14:27 37.493029 -121.211605 290 6420ft 174kts
29-Apr-18 14:28 37.511781 -121.268072 289 5428ft 173kts
29-Apr-18 14:29 37.529765 -121.322315 289 4991ft 163kts
29-Apr-18 14:30 37.547458 -121.375774 289 4988ft 168kts
29-Apr-18 14:31 37.568287 -121.429584 293 4991ft 170kts
29-Apr-18 14:32 37.589602 -121.483247 293 4916ft 173kts
29-Apr-18 14:33 37.611390 -121.538248 293 3931ft 177kts
29-Apr-18 14:34 37.639353 -121.581512 313 3111ft 177kts
29-Apr-18 14:35 37.671876 -121.623812 296 2938ft 162kts
29-Apr-18 14:36 37.690860 -121.675325 285 2447ft 156kts
29-Apr-18 14:37 37.693151 -121.726137 268 1932ft 125kts
29-Apr-18 14:38 37.693411 -121.766112 267 1196ft 120kts
29-Apr-18 14:39 37.693745 -121.803779 267 557ft 94kts
29-Apr-18 14:40 37.694287 -121.820660 358 402ft 5kts
29-Apr-18 14:41 37.695758 -121.820191 53 402ft 8kts
29-Apr-18 14:42 37.696056 -121.820220 257 402ft 0kts
29-Apr-18 14:43 37.696056 -121.820221 257 402ft 0kts
29-Apr-18 14:44 37.696056 -121.820221 256 402ft 0kts
29-Apr-18 14:45 37.696056 -121.820221 256 402ft 0kts
29-Apr-18 14:46 37.696056 -121.820221 256 402ft 0kts
29-Apr-18 14:47 37.696056 -121.820221 256 402ft 0kts

Navigation Log

Ident Type
Flight plan parsing failed, navigation log unavailable